sensor_id;sensor_type;location;lat;lon;timestamp;temperature;humidity
39453;DHT22;25154;-33.684;151.102;2023-07-16T00:03:20;15.20;99.90
39453;DHT22;25154;-33.684;151.102;2023-07-16T00:08:23;15.30;99.90
39453;DHT22;25154;-33.684;151.102;2023-07-16T00:13:25;15.60;99.90
39453;DHT22;25154;-33.684;151.102;2023-07-16T00:18:27;15.80;99.90
39453;DHT22;25154;-33.684;151.102;2023-07-16T00:23:30;16.20;99.90
39453;DHT22;25154;-33.684;151.102;2023-07-16T01:19:47;15.70;99.90
39453;DHT22;25154;-33.684;151.102;2023-07-16T01:25:14;15.90;99.90
39453;DHT22;25154;-33.684;151.102;2023-07-16T01:30:24;15.80;99.90
39453;DHT22;25154;-33.684;151.102;2023-07-16T01:35:29;15.60;99.90
39453;DHT22;25154;-33.684;151.102;2023-07-16T01:40:32;16.10;99.90
39453;DHT22;25154;-33.684;151.102;2023-07-16T01:45:34;16.30;99.90
39453;DHT22;25154;-33.684;151.102;2023-07-16T01:50:38;16.40;99.90
39453;DHT22;25154;-33.684;151.102;2023-07-16T01:55:40;16.50;99.90
39453;DHT22;25154;-33.684;151.102;2023-07-16T02:00:43;16.50;99.90
39453;DHT22;25154;-33.684;151.102;2023-07-16T02:05:45;16.80;99.90
39453;DHT22;25154;-33.684;151.102;2023-07-16T02:10:48;17.00;99.90
39453;DHT22;25154;-33.684;151.102;2023-07-16T02:15:50;17.20;99.90
39453;DHT22;25154;-33.684;151.102;2023-07-16T02:20:52;17.40;99.90
39453;DHT22;25154;-33.684;151.102;2023-07-16T02:25:55;18.10;99.90
39453;DHT22;25154;-33.684;151.102;2023-07-16T02:30:59;18.10;99.90
39453;DHT22;25154;-33.684;151.102;2023-07-16T02:36:01;18.10;99.90
39453;DHT22;25154;-33.684;151.102;2023-07-16T02:41:03;18.10;99.90
39453;DHT22;25154;-33.684;151.102;2023-07-16T02:46:07;17.90;99.90
39453;DHT22;25154;-33.684;151.102;2023-07-16T02:51:09;18.00;99.90
39453;DHT22;25154;-33.684;151.102;2023-07-16T02:56:12;17.20;99.90
39453;DHT22;25154;-33.684;151.102;2023-07-16T03:01:14;17.00;99.90
39453;DHT22;25154;-33.684;151.102;2023-07-16T03:06:16;16.70;99.90
39453;DHT22;25154;-33.684;151.102;2023-07-16T03:11:19;16.40;99.90
39453;DHT22;25154;-33.684;151.102;2023-07-16T03:16:21;16.50;99.90
39453;DHT22;25154;-33.684;151.102;2023-07-16T03:21:25;16.70;99.90
39453;DHT22;25154;-33.684;151.102;2023-07-16T03:26:27;16.80;99.90
39453;DHT22;25154;-33.684;151.102;2023-07-16T03:31:29;16.80;99.90
39453;DHT22;25154;-33.684;151.102;2023-07-16T03:36:31;17.30;99.90
39453;DHT22;25154;-33.684;151.102;2023-07-16T03:41:34;17.20;99.90
39453;DHT22;25154;-33.684;151.102;2023-07-16T03:46:36;17.20;99.90
39453;DHT22;25154;-33.684;151.102;2023-07-16T03:51:38;17.00;99.90
39453;DHT22;25154;-33.684;151.102;2023-07-16T03:56:41;17.90;99.90
39453;DHT22;25154;-33.684;151.102;2023-07-16T04:01:43;19.00;99.90
39453;DHT22;25154;-33.684;151.102;2023-07-16T04:06:46;20.30;99.90
39453;DHT22;25154;-33.684;151.102;2023-07-16T04:11:48;20.90;99.90
39453;DHT22;25154;-33.684;151.102;2023-07-16T04:16:50;18.70;99.90
39453;DHT22;25154;-33.684;151.102;2023-07-16T04:21:54;18.20;99.90
39453;DHT22;25154;-33.684;151.102;2023-07-16T04:26:57;17.70;99.90
39453;DHT22;25154;-33.684;151.102;2023-07-16T04:31:59;17.30;99.90
39453;DHT22;25154;-33.684;151.102;2023-07-16T04:37:02;17.10;99.90
39453;DHT22;25154;-33.684;151.102;2023-07-16T04:42:05;16.80;99.90
39453;DHT22;25154;-33.684;151.102;2023-07-16T04:47:07;16.50;99.90
39453;DHT22;25154;-33.684;151.102;2023-07-16T04:52:09;16.20;99.90
39453;DHT22;25154;-33.684;151.102;2023-07-16T04:57:12;16.00;99.90
39453;DHT22;25154;-33.684;151.102;2023-07-16T05:02:14;15.90;99.90
39453;DHT22;25154;-33.684;151.102;2023-07-16T05:07:18;15.80;99.90
39453;DHT22;25154;-33.684;151.102;2023-07-16T05:12:21;15.70;99.90
39453;DHT22;25154;-33.684;151.102;2023-07-16T05:17:23;15.50;99.90
39453;DHT22;25154;-33.684;151.102;2023-07-16T05:22:25;15.50;99.90
39453;DHT22;25154;-33.684;151.102;2023-07-16T05:27:28;15.30;99.90
39453;DHT22;25154;-33.684;151.102;2023-07-16T05:32:30;15.20;99.90
39453;DHT22;25154;-33.684;151.102;2023-07-16T05:37:33;15.20;99.90
39453;DHT22;25154;-33.684;151.102;2023-07-16T05:42:35;15.10;99.90
39453;DHT22;25154;-33.684;151.102;2023-07-16T05:47:38;15.00;99.90
39453;DHT22;25154;-33.684;151.102;2023-07-16T05:52:40;14.90;99.90
39453;DHT22;25154;-33.684;151.102;2023-07-16T05:57:43;15.00;99.90
39453;DHT22;25154;-33.684;151.102;2023-07-16T06:02:45;14.90;99.90
39453;DHT22;25154;-33.684;151.102;2023-07-16T06:07:47;14.90;99.90
39453;DHT22;25154;-33.684;151.102;2023-07-16T06:12:50;14.90;99.90
39453;DHT22;25154;-33.684;151.102;2023-07-16T06:17:52;14.80;99.90
39453;DHT22;25154;-33.684;151.102;2023-07-16T06:22:54;14.80;99.90
39453;DHT22;25154;-33.684;151.102;2023-07-16T06:27:57;14.70;99.90
39453;DHT22;25154;-33.684;151.102;2023-07-16T06:33:00;14.60;99.90
39453;DHT22;25154;-33.684;151.102;2023-07-16T06:38:02;14.60;99.90
39453;DHT22;25154;-33.684;151.102;2023-07-16T06:43:04;14.40;99.90
39453;DHT22;25154;-33.684;151.102;2023-07-16T06:48:07;14.30;99.90
39453;DHT22;25154;-33.684;151.102;2023-07-16T06:53:09;14.30;99.90
39453;DHT22;25154;-33.684;151.102;2023-07-16T06:58:15;14.30;99.90
39453;DHT22;25154;-33.684;151.102;2023-07-16T07:03:17;14.20;99.90
39453;DHT22;25154;-33.684;151.102;2023-07-16T07:08:19;14.20;99.90
39453;DHT22;25154;-33.684;151.102;2023-07-16T07:13:22;14.00;99.90
39453;DHT22;25154;-33.684;151.102;2023-07-16T07:18:24;13.90;99.90
39453;DHT22;25154;-33.684;151.102;2023-07-16T07:23:27;13.90;99.90
39453;DHT22;25154;-33.684;151.102;2023-07-16T07:28:29;13.90;99.90
39453;DHT22;25154;-33.684;151.102;2023-07-16T07:33:31;13.80;99.90
39453;DHT22;25154;-33.684;151.102;2023-07-16T07:38:34;13.60;99.90
39453;DHT22;25154;-33.684;151.102;2023-07-16T07:43:36;13.70;99.90
39453;DHT22;25154;-33.684;151.102;2023-07-16T07:48:38;13.60;99.90
39453;DHT22;25154;-33.684;151.102;2023-07-16T07:53:41;13.50;99.90
39453;DHT22;25154;-33.684;151.102;2023-07-16T07:58:43;13.50;99.90
39453;DHT22;25154;-33.684;151.102;2023-07-16T08:03:45;13.50;99.90
39453;DHT22;25154;-33.684;151.102;2023-07-16T08:08:47;13.50;99.90
39453;DHT22;25154;-33.684;151.102;2023-07-16T08:13:50;13.50;99.90
39453;DHT22;25154;-33.684;151.102;2023-07-16T08:18:52;13.40;99.90
39453;DHT22;25154;-33.684;151.102;2023-07-16T08:23:54;13.50;99.90
39453;DHT22;25154;-33.684;151.102;2023-07-16T08:28:57;13.50;99.90
39453;DHT22;25154;-33.684;151.102;2023-07-16T08:33:59;13.40;99.90
39453;DHT22;25154;-33.684;151.102;2023-07-16T08:39:01;13.50;99.90
39453;DHT22;25154;-33.684;151.102;2023-07-16T08:44:04;13.40;99.90
39453;DHT22;25154;-33.684;151.102;2023-07-16T08:49:08;13.40;99.90
39453;DHT22;25154;-33.684;151.102;2023-07-16T08:54:11;13.50;99.90
39453;DHT22;25154;-33.684;151.102;2023-07-16T08:59:15;13.40;99.90
39453;DHT22;25154;-33.684;151.102;2023-07-16T09:04:17;13.40;99.90
39453;DHT22;25154;-33.684;151.102;2023-07-16T09:09:23;13.40;99.90
39453;DHT22;25154;-33.684;151.102;2023-07-16T09:14:26;13.40;99.90
39453;DHT22;25154;-33.684;151.102;2023-07-16T09:19:31;13.40;99.90
39453;DHT22;25154;-33.684;151.102;2023-07-16T09:24:33;13.30;99.90
39453;DHT22;25154;-33.684;151.102;2023-07-16T09:29:38;13.20;99.90
39453;DHT22;25154;-33.684;151.102;2023-07-16T09:34:41;13.20;99.90
39453;DHT22;25154;-33.684;151.102;2023-07-16T09:39:44;13.20;99.90
39453;DHT22;25154;-33.684;151.102;2023-07-16T09:44:48;13.30;99.90
39453;DHT22;25154;-33.684;151.102;2023-07-16T09:49:51;13.20;99.90
39453;DHT22;25154;-33.684;151.102;2023-07-16T09:54:55;13.20;99.90
39453;DHT22;25154;-33.684;151.102;2023-07-16T10:00:02;13.30;99.90
39453;DHT22;25154;-33.684;151.102;2023-07-16T10:05:13;13.40;99.90
39453;DHT22;25154;-33.684;151.102;2023-07-16T10:10:16;13.30;99.90
39453;DHT22;25154;-33.684;151.102;2023-07-16T10:15:25;13.40;99.90
39453;DHT22;25154;-33.684;151.102;2023-07-16T10:20:30;13.30;99.90
39453;DHT22;25154;-33.684;151.102;2023-07-16T10:25:32;13.20;99.90
39453;DHT22;25154;-33.684;151.102;2023-07-16T10:30:35;13.10;99.90
39453;DHT22;25154;-33.684;151.102;2023-07-16T10:35:41;13.20;99.90
39453;DHT22;25154;-33.684;151.102;2023-07-16T10:40:45;13.10;99.90
39453;DHT22;25154;-33.684;151.102;2023-07-16T10:45:47;13.10;99.90
39453;DHT22;25154;-33.684;151.102;2023-07-16T10:50:54;13.10;99.90
39453;DHT22;25154;-33.684;151.102;2023-07-16T10:55:58;13.20;99.90
39453;DHT22;25154;-33.684;151.102;2023-07-16T11:01:02;13.20;99.90
39453;DHT22;25154;-33.684;151.102;2023-07-16T11:06:11;13.00;99.90
39453;DHT22;25154;-33.684;151.102;2023-07-16T11:11:13;13.00;99.90
39453;DHT22;25154;-33.684;151.102;2023-07-16T11:16:16;12.80;99.90
39453;DHT22;25154;-33.684;151.102;2023-07-16T11:21:22;12.90;99.90
39453;DHT22;25154;-33.684;151.102;2023-07-16T11:26:24;12.80;99.90
39453;DHT22;25154;-33.684;151.102;2023-07-16T11:31:27;12.90;99.90
39453;DHT22;25154;-33.684;151.102;2023-07-16T11:36:30;13.30;99.90
39453;DHT22;25154;-33.684;151.102;2023-07-16T11:41:32;13.00;99.90
39453;DHT22;25154;-33.684;151.102;2023-07-16T11:46:34;13.00;99.90
39453;DHT22;25154;-33.684;151.102;2023-07-16T11:51:37;13.00;99.90
39453;DHT22;25154;-33.684;151.102;2023-07-16T11:56:39;13.10;99.90
39453;DHT22;25154;-33.684;151.102;2023-07-16T12:01:41;13.10;99.90
39453;DHT22;25154;-33.684;151.102;2023-07-16T12:06:44;13.00;99.90
39453;DHT22;25154;-33.684;151.102;2023-07-16T12:11:46;13.00;99.90
39453;DHT22;25154;-33.684;151.102;2023-07-16T12:16:48;13.00;99.90
39453;DHT22;25154;-33.684;151.102;2023-07-16T12:21:51;12.90;99.90
39453;DHT22;25154;-33.684;151.102;2023-07-16T12:26:53;13.00;99.90
39453;DHT22;25154;-33.684;151.102;2023-07-16T12:31:56;12.90;99.90
39453;DHT22;25154;-33.684;151.102;2023-07-16T12:36:58;12.90;99.90
39453;DHT22;25154;-33.684;151.102;2023-07-16T12:42:00;12.90;99.90
39453;DHT22;25154;-33.684;151.102;2023-07-16T12:47:03;12.90;99.90
39453;DHT22;25154;-33.684;151.102;2023-07-16T12:52:06;12.90;99.90
39453;DHT22;25154;-33.684;151.102;2023-07-16T12:57:09;12.90;99.90
39453;DHT22;25154;-33.684;151.102;2023-07-16T13:02:11;12.80;99.90
39453;DHT22;25154;-33.684;151.102;2023-07-16T13:07:14;13.10;99.90
39453;DHT22;25154;-33.684;151.102;2023-07-16T13:12:16;12.90;99.90
39453;DHT22;25154;-33.684;151.102;2023-07-16T13:17:18;12.60;99.90
39453;DHT22;25154;-33.684;151.102;2023-07-16T13:22:21;12.70;99.90
39453;DHT22;25154;-33.684;151.102;2023-07-16T13:27:24;12.70;99.90
39453;DHT22;25154;-33.684;151.102;2023-07-16T13:32:26;12.80;99.90
39453;DHT22;25154;-33.684;151.102;2023-07-16T13:37:28;12.90;99.90
39453;DHT22;25154;-33.684;151.102;2023-07-16T13:42:30;12.90;99.90
39453;DHT22;25154;-33.684;151.102;2023-07-16T13:47:33;12.90;99.90
39453;DHT22;25154;-33.684;151.102;2023-07-16T13:52:35;12.80;99.90
39453;DHT22;25154;-33.684;151.102;2023-07-16T13:57:37;12.70;99.90
39453;DHT22;25154;-33.684;151.102;2023-07-16T14:02:40;12.80;99.90
39453;DHT22;25154;-33.684;151.102;2023-07-16T14:07:42;12.70;99.90
39453;DHT22;25154;-33.684;151.102;2023-07-16T14:12:44;12.70;99.90
39453;DHT22;25154;-33.684;151.102;2023-07-16T14:17:47;12.50;99.90
39453;DHT22;25154;-33.684;151.102;2023-07-16T14:22:52;12.40;99.90
39453;DHT22;25154;-33.684;151.102;2023-07-16T14:27:54;12.40;99.90
39453;DHT22;25154;-33.684;151.102;2023-07-16T14:32:58;12.50;99.90
39453;DHT22;25154;-33.684;151.102;2023-07-16T14:38:01;12.40;99.90
39453;DHT22;25154;-33.684;151.102;2023-07-16T14:43:05;12.30;99.90
39453;DHT22;25154;-33.684;151.102;2023-07-16T14:48:10;12.10;99.90
39453;DHT22;25154;-33.684;151.102;2023-07-16T14:53:13;11.90;99.90
39453;DHT22;25154;-33.684;151.102;2023-07-16T14:58:19;12.10;99.90
39453;DHT22;25154;-33.684;151.102;2023-07-16T15:03:24;12.00;99.90
39453;DHT22;25154;-33.684;151.102;2023-07-16T15:08:27;11.80;99.90
39453;DHT22;25154;-33.684;151.102;2023-07-16T15:13:31;11.50;99.90
39453;DHT22;25154;-33.684;151.102;2023-07-16T15:18:33;11.70;99.90
39453;DHT22;25154;-33.684;151.102;2023-07-16T15:23:35;11.60;99.90
39453;DHT22;25154;-33.684;151.102;2023-07-16T15:28:38;11.30;99.90
39453;DHT22;25154;-33.684;151.102;2023-07-16T15:33:43;11.50;99.90
39453;DHT22;25154;-33.684;151.102;2023-07-16T15:38:45;11.40;99.90
39453;DHT22;25154;-33.684;151.102;2023-07-16T15:43:48;11.20;99.90
39453;DHT22;25154;-33.684;151.102;2023-07-16T15:48:51;11.10;99.90
39453;DHT22;25154;-33.684;151.102;2023-07-16T15:53:54;11.20;99.90
39453;DHT22;25154;-33.684;151.102;2023-07-16T15:58:56;11.10;99.90
39453;DHT22;25154;-33.684;151.102;2023-07-16T16:03:59;11.20;99.90
39453;DHT22;25154;-33.684;151.102;2023-07-16T16:09:01;11.00;99.90
39453;DHT22;25154;-33.684;151.102;2023-07-16T16:14:03;11.20;99.90
39453;DHT22;25154;-33.684;151.102;2023-07-16T16:19:10;11.00;99.90
39453;DHT22;25154;-33.684;151.102;2023-07-16T16:24:14;11.10;99.90
39453;DHT22;25154;-33.684;151.102;2023-07-16T16:29:16;11.00;99.90
39453;DHT22;25154;-33.684;151.102;2023-07-16T16:34:18;10.80;99.90
39453;DHT22;25154;-33.684;151.102;2023-07-16T16:39:21;10.90;99.90
39453;DHT22;25154;-33.684;151.102;2023-07-16T16:44:23;10.70;99.90
39453;DHT22;25154;-33.684;151.102;2023-07-16T16:49:25;10.50;99.90
39453;DHT22;25154;-33.684;151.102;2023-07-16T16:54:27;10.50;99.90
39453;DHT22;25154;-33.684;151.102;2023-07-16T16:59:30;10.50;99.90
39453;DHT22;25154;-33.684;151.102;2023-07-16T17:04:37;10.40;99.90
39453;DHT22;25154;-33.684;151.102;2023-07-16T17:09:43;10.30;99.90
39453;DHT22;25154;-33.684;151.102;2023-07-16T17:14:46;10.30;99.90
39453;DHT22;25154;-33.684;151.102;2023-07-16T17:19:52;10.20;99.90
39453;DHT22;25154;-33.684;151.102;2023-07-16T17:24:55;10.20;99.90
39453;DHT22;25154;-33.684;151.102;2023-07-16T17:29:57;10.40;99.90
39453;DHT22;25154;-33.684;151.102;2023-07-16T17:35:00;10.30;99.90
39453;DHT22;25154;-33.684;151.102;2023-07-16T17:40:02;10.10;99.90
39453;DHT22;25154;-33.684;151.102;2023-07-16T17:45:09;10.40;99.90
39453;DHT22;25154;-33.684;151.102;2023-07-16T17:50:11;10.20;99.90
39453;DHT22;25154;-33.684;151.102;2023-07-16T17:55:14;10.30;99.90
39453;DHT22;25154;-33.684;151.102;2023-07-16T18:00:16;10.40;99.90
39453;DHT22;25154;-33.684;151.102;2023-07-16T18:05:19;10.10;99.90
39453;DHT22;25154;-33.684;151.102;2023-07-16T18:10:22;10.20;99.90
39453;DHT22;25154;-33.684;151.102;2023-07-16T18:15:24;10.30;99.90
39453;DHT22;25154;-33.684;151.102;2023-07-16T18:20:26;10.20;99.90
39453;DHT22;25154;-33.684;151.102;2023-07-16T18:25:29;10.20;99.90
39453;DHT22;25154;-33.684;151.102;2023-07-16T18:30:32;10.30;99.90
39453;DHT22;25154;-33.684;151.102;2023-07-16T18:35:34;10.50;99.90
39453;DHT22;25154;-33.684;151.102;2023-07-16T18:40:36;10.50;99.90
39453;DHT22;25154;-33.684;151.102;2023-07-16T18:45:38;10.40;99.90
39453;DHT22;25154;-33.684;151.102;2023-07-16T18:50:41;10.60;99.90
39453;DHT22;25154;-33.684;151.102;2023-07-16T18:55:43;10.50;99.90
39453;DHT22;25154;-33.684;151.102;2023-07-16T19:00:48;10.60;99.90
39453;DHT22;25154;-33.684;151.102;2023-07-16T19:05:51;10.70;99.90
39453;DHT22;25154;-33.684;151.102;2023-07-16T19:10:53;10.60;99.90
39453;DHT22;25154;-33.684;151.102;2023-07-16T19:15:56;10.50;99.90
39453;DHT22;25154;-33.684;151.102;2023-07-16T19:20:58;10.60;99.90
39453;DHT22;25154;-33.684;151.102;2023-07-16T19:26:00;10.70;99.90
39453;DHT22;25154;-33.684;151.102;2023-07-16T19:31:02;10.70;99.90
39453;DHT22;25154;-33.684;151.102;2023-07-16T19:36:05;11.00;99.90
39453;DHT22;25154;-33.684;151.102;2023-07-16T19:41:08;10.80;99.90
39453;DHT22;25154;-33.684;151.102;2023-07-16T19:46:10;10.70;99.90
39453;DHT22;25154;-33.684;151.102;2023-07-16T19:51:12;10.60;99.90
39453;DHT22;25154;-33.684;151.102;2023-07-16T19:56:15;10.80;99.90
39453;DHT22;25154;-33.684;151.102;2023-07-16T20:01:18;10.90;99.90
39453;DHT22;25154;-33.684;151.102;2023-07-16T20:06:21;10.70;99.90
39453;DHT22;25154;-33.684;151.102;2023-07-16T20:11:24;10.90;99.90
39453;DHT22;25154;-33.684;151.102;2023-07-16T20:16:27;11.00;99.90
39453;DHT22;25154;-33.684;151.102;2023-07-16T20:21:31;10.90;99.90
39453;DHT22;25154;-33.684;151.102;2023-07-16T20:26:34;11.00;99.90
39453;DHT22;25154;-33.684;151.102;2023-07-16T20:31:36;10.80;99.90
39453;DHT22;25154;-33.684;151.102;2023-07-16T20:36:39;10.70;99.90
39453;DHT22;25154;-33.684;151.102;2023-07-16T20:41:44;10.80;99.90
39453;DHT22;25154;-33.684;151.102;2023-07-16T20:46:46;10.50;99.90
39453;DHT22;25154;-33.684;151.102;2023-07-16T20:51:49;10.40;99.90
39453;DHT22;25154;-33.684;151.102;2023-07-16T20:56:51;10.50;99.90
39453;DHT22;25154;-33.684;151.102;2023-07-16T21:01:56;10.40;99.90
39453;DHT22;25154;-33.684;151.102;2023-07-16T21:06:58;9.80;99.90
39453;DHT22;25154;-33.684;151.102;2023-07-16T21:12:01;10.00;99.90
39453;DHT22;25154;-33.684;151.102;2023-07-16T21:17:03;10.20;99.90
39453;DHT22;25154;-33.684;151.102;2023-07-16T21:22:05;10.10;99.90
39453;DHT22;25154;-33.684;151.102;2023-07-16T21:27:11;9.90;99.90
39453;DHT22;25154;-33.684;151.102;2023-07-16T21:32:15;10.10;99.90
39453;DHT22;25154;-33.684;151.102;2023-07-16T21:37:18;9.90;99.90
39453;DHT22;25154;-33.684;151.102;2023-07-16T21:42:20;9.70;99.90
39453;DHT22;25154;-33.684;151.102;2023-07-16T21:47:23;9.90;99.90
39453;DHT22;25154;-33.684;151.102;2023-07-16T21:52:25;10.00;99.90
39453;DHT22;25154;-33.684;151.102;2023-07-16T21:57:28;9.80;99.90
39453;DHT22;25154;-33.684;151.102;2023-07-16T22:02:30;10.10;99.90
39453;DHT22;25154;-33.684;151.102;2023-07-16T22:07:32;10.20;99.90
39453;DHT22;25154;-33.684;151.102;2023-07-16T22:12:35;10.40;99.90
39453;DHT22;25154;-33.684;151.102;2023-07-16T22:17:37;10.50;99.90
39453;DHT22;25154;-33.684;151.102;2023-07-16T22:22:40;10.50;99.90
39453;DHT22;25154;-33.684;151.102;2023-07-16T22:27:44;10.70;99.90
39453;DHT22;25154;-33.684;151.102;2023-07-16T22:32:46;11.00;99.90
39453;DHT22;25154;-33.684;151.102;2023-07-16T22:37:48;11.30;99.90
39453;DHT22;25154;-33.684;151.102;2023-07-16T22:42:51;11.40;99.90
39453;DHT22;25154;-33.684;151.102;2023-07-16T22:47:53;11.80;99.90
39453;DHT22;25154;-33.684;151.102;2023-07-16T22:52:55;12.00;99.90
39453;DHT22;25154;-33.684;151.102;2023-07-16T22:57:58;12.50;99.90
39453;DHT22;25154;-33.684;151.102;2023-07-16T23:03:00;13.40;99.90
39453;DHT22;25154;-33.684;151.102;2023-07-16T23:08:03;14.10;99.90
39453;DHT22;25154;-33.684;151.102;2023-07-16T23:13:05;14.40;99.90
39453;DHT22;25154;-33.684;151.102;2023-07-16T23:18:08;14.80;99.90
39453;DHT22;25154;-33.684;151.102;2023-07-16T23:23:11;14.80;99.90
39453;DHT22;25154;-33.684;151.102;2023-07-16T23:28:15;14.90;99.90
39453;DHT22;25154;-33.684;151.102;2023-07-16T23:33:18;15.00;99.90
39453;DHT22;25154;-33.684;151.102;2023-07-16T23:38:21;15.10;99.90
39453;DHT22;25154;-33.684;151.102;2023-07-16T23:43:24;15.30;99.90
39453;DHT22;25154;-33.684;151.102;2023-07-16T23:48:27;15.50;99.90
39453;DHT22;25154;-33.684;151.102;2023-07-16T23:53:30;16.00;99.90
39453;DHT22;25154;-33.684;151.102;2023-07-16T23:58:33;16.40;99.90
